createdAt,value
2018-12-22T00:00:46.060Z,952.46
2018-12-22T00:01:46.052Z,952.52
2018-12-22T00:02:46.048Z,952.61
2018-12-22T00:03:46.046Z,952.58
2018-12-22T00:04:46.045Z,952.56
2018-12-22T00:05:46.040Z,952.43
2018-12-22T00:06:46.035Z,952.48
2018-12-22T00:07:46.076Z,952.52
2018-12-22T00:08:46.030Z,952.50
2018-12-22T00:09:46.024Z,952.60
2018-12-22T00:10:46.025Z,952.56
2018-12-22T00:11:46.019Z,952.58
2018-12-22T00:12:46.014Z,952.54
2018-12-22T00:13:46.013Z,952.65
2018-12-22T00:14:46.007Z,952.60
2018-12-22T00:15:46.001Z,952.75
2018-12-22T00:16:45.999Z,952.73
2018-12-22T00:17:46.005Z,952.61
2018-12-22T00:18:45.995Z,952.74
2018-12-22T00:19:45.987Z,952.73
2018-12-22T00:20:45.985Z,952.71
2018-12-22T00:21:45.983Z,952.52
2018-12-22T00:22:45.983Z,952.64
2018-12-22T00:23:45.979Z,952.68
2018-12-22T00:24:45.989Z,952.66
2018-12-22T00:25:46.004Z,952.73
2018-12-22T00:26:45.963Z,952.83
2018-12-22T00:27:45.960Z,952.74
2018-12-22T00:28:45.955Z,952.80
2018-12-22T00:29:46.061Z,952.71
2018-12-22T00:30:45.949Z,952.75
2018-12-22T00:31:45.948Z,952.74
2018-12-22T00:32:45.961Z,952.72
2018-12-22T00:33:45.943Z,952.74
2018-12-22T00:34:45.936Z,952.74
2018-12-22T00:35:45.932Z,952.72
2018-12-22T00:36:45.930Z,952.70
2018-12-22T00:37:45.929Z,952.80
2018-12-22T00:38:45.919Z,952.77
2018-12-22T00:39:45.917Z,952.77
2018-12-22T00:40:45.914Z,952.77
2018-12-22T00:41:45.975Z,952.77
2018-12-22T00:42:45.917Z,952.71
2018-12-22T00:43:45.902Z,952.75
2018-12-22T00:44:45.898Z,952.82
2018-12-22T00:45:45.895Z,952.70
2018-12-22T00:46:45.891Z,952.85
2018-12-22T00:47:45.898Z,952.78
2018-12-22T00:48:45.887Z,952.81
2018-12-22T00:49:45.880Z,952.81
2018-12-22T00:50:45.878Z,952.81
2018-12-22T00:51:45.875Z,952.60
2018-12-22T00:52:45.871Z,952.92
2018-12-22T00:53:45.869Z,952.84
2018-12-22T00:54:45.864Z,952.85
2018-12-22T00:55:45.858Z,952.88
2018-12-22T00:56:45.854Z,952.83
2018-12-22T00:57:45.853Z,952.71
2018-12-22T00:58:45.852Z,952.79
2018-12-22T00:59:45.845Z,952.85
2018-12-22T01:00:45.842Z,952.86
2018-12-22T01:01:45.838Z,952.91
2018-12-22T01:02:45.834Z,952.99
2018-12-22T01:03:45.831Z,952.94
2018-12-22T01:04:45.840Z,952.71
2018-12-22T01:05:45.822Z,952.93
2018-12-22T01:06:45.819Z,952.90
2018-12-22T01:07:45.816Z,952.95
2018-12-22T01:08:45.812Z,952.81
2018-12-22T01:09:45.809Z,952.95
2018-12-22T01:10:45.812Z,952.96
2018-12-22T01:11:45.804Z,952.93
2018-12-22T01:12:45.796Z,952.96
2018-12-22T01:13:45.823Z,953.02
2018-12-22T01:14:45.795Z,953.05
2018-12-22T01:15:45.784Z,953.07
2018-12-22T01:16:45.784Z,953.00
2018-12-22T01:17:45.807Z,953.14
2018-12-22T01:18:45.774Z,953.13
2018-12-22T01:19:45.769Z,953.19
2018-12-22T01:20:45.768Z,953.15
2018-12-22T01:21:45.773Z,953.19
2018-12-22T01:22:45.762Z,953.26
2018-12-22T01:23:45.754Z,953.08
2018-12-22T01:24:45.752Z,953.18
2018-12-22T01:25:45.747Z,953.21
2018-12-22T01:26:45.747Z,953.11
2018-12-22T01:27:45.738Z,953.22
2018-12-22T01:28:45.751Z,953.25
2018-12-22T01:29:45.732Z,953.30
2018-12-22T01:30:45.727Z,953.25
2018-12-22T01:31:45.725Z,953.33
2018-12-22T01:32:45.720Z,953.36
2018-12-22T01:33:45.718Z,953.24
2018-12-22T01:34:45.713Z,953.34
2018-12-22T01:35:45.729Z,953.38
2018-12-22T01:36:45.707Z,953.40
2018-12-22T01:37:45.719Z,953.40
2018-12-22T01:38:45.697Z,953.29
2018-12-22T01:39:45.698Z,953.42
2018-12-22T01:40:45.691Z,953.26
2018-12-22T01:41:45.688Z,953.39
2018-12-22T01:42:45.683Z,953.30
2018-12-22T01:43:45.678Z,953.39
2018-12-22T01:44:45.673Z,953.50
2018-12-22T01:45:45.671Z,953.46
2018-12-22T01:46:45.670Z,953.42
2018-12-22T01:47:45.662Z,953.51
2018-12-22T01:48:45.663Z,953.36
2018-12-22T01:49:45.666Z,953.40
2018-12-22T01:50:45.659Z,953.48
2018-12-22T01:51:45.650Z,953.54
2018-12-22T01:52:45.644Z,953.54
2018-12-22T01:53:45.645Z,953.57
2018-12-22T01:54:45.634Z,953.58
2018-12-22T01:55:45.631Z,953.45
2018-12-22T01:56:45.631Z,953.57
2018-12-22T01:57:45.640Z,953.53
2018-12-22T01:58:47.955Z,953.48
2018-12-22T01:59:45.620Z,953.56
2018-12-22T02:00:45.648Z,953.65
2018-12-22T02:01:45.608Z,953.61
2018-12-22T02:02:45.609Z,953.61
2018-12-22T02:03:45.601Z,953.65
2018-12-22T02:04:45.599Z,953.59
2018-12-22T02:05:45.596Z,953.66
2018-12-22T02:06:45.590Z,953.56
2018-12-22T02:07:45.592Z,953.58
2018-12-22T02:08:45.582Z,953.56
2018-12-22T02:09:45.578Z,953.64
2018-12-22T02:10:45.573Z,953.64
2018-12-22T02:11:45.574Z,953.57
2018-12-22T02:12:45.569Z,953.72
2018-12-22T02:13:45.570Z,953.78
2018-12-22T02:14:45.561Z,953.77
2018-12-22T02:15:45.556Z,953.79
2018-12-22T02:16:45.565Z,953.75
2018-12-22T02:17:45.554Z,953.71
2018-12-22T02:18:45.546Z,953.77
2018-12-22T02:19:45.544Z,953.70
2018-12-22T02:20:45.545Z,953.64
2018-12-22T02:21:45.533Z,953.67
2018-12-22T02:22:45.528Z,953.70
2018-12-22T02:23:45.524Z,953.61
2018-12-22T02:24:45.523Z,953.74
2018-12-22T02:25:45.538Z,953.69
2018-12-22T02:26:45.514Z,953.74
2018-12-22T02:27:45.512Z,953.73
2018-12-22T02:28:45.504Z,953.81
2018-12-22T02:29:45.534Z,953.82
2018-12-22T02:30:45.497Z,953.71
2018-12-22T02:31:45.494Z,953.67
2018-12-22T02:32:45.503Z,953.69
2018-12-22T02:33:45.486Z,953.64
2018-12-22T02:34:45.482Z,953.84
2018-12-22T02:35:45.485Z,953.82
2018-12-22T02:36:45.481Z,953.82
2018-12-22T02:37:45.471Z,953.76
2018-12-22T02:38:45.465Z,953.82
2018-12-22T02:39:45.469Z,953.73
2018-12-22T02:40:47.263Z,953.85
2018-12-22T02:41:45.455Z,953.84
2018-12-22T02:42:45.449Z,953.83
2018-12-22T02:43:45.447Z,953.70
2018-12-22T02:44:45.440Z,953.73
2018-12-22T02:45:45.436Z,953.77
2018-12-22T02:46:45.432Z,953.79
2018-12-22T02:47:45.432Z,953.86
2018-12-22T02:48:45.424Z,953.81
2018-12-22T02:49:45.425Z,953.80
2018-12-22T02:50:45.422Z,953.76
2018-12-22T02:51:45.412Z,953.67
2018-12-22T02:52:45.411Z,953.62
2018-12-22T02:53:45.403Z,953.64
2018-12-22T02:54:45.401Z,953.58
2018-12-22T02:55:45.396Z,953.54
2018-12-22T02:56:45.400Z,953.64
2018-12-22T02:57:45.390Z,953.51
2018-12-22T02:58:45.445Z,953.50
2018-12-22T02:59:45.379Z,953.42
2018-12-22T03:00:45.381Z,953.36
2018-12-22T03:01:45.403Z,953.28
2018-12-22T03:02:45.370Z,953.36
2018-12-22T03:03:45.511Z,953.40
2018-12-22T03:04:45.369Z,953.41
2018-12-22T03:05:45.373Z,953.47
2018-12-22T03:06:45.353Z,953.49
2018-12-22T03:07:45.366Z,953.40
2018-12-22T03:08:45.370Z,953.43
2018-12-22T03:09:45.348Z,953.47
2018-12-22T03:10:45.349Z,953.56
2018-12-22T03:11:45.329Z,953.36
2018-12-22T03:12:45.340Z,953.38
2018-12-22T03:13:45.350Z,953.46
2018-12-22T03:14:45.317Z,953.41
2018-12-22T03:15:45.312Z,953.45
2018-12-22T03:16:45.309Z,953.46
2018-12-22T03:17:45.306Z,953.32
2018-12-22T03:18:45.317Z,953.47
2018-12-22T03:19:45.294Z,953.49
2018-12-22T03:20:45.290Z,953.33
2018-12-22T03:21:45.291Z,953.39
2018-12-22T03:22:45.304Z,953.39
2018-12-22T03:23:45.282Z,953.39
2018-12-22T03:24:45.274Z,953.36
2018-12-22T03:25:45.274Z,953.28
2018-12-22T03:26:45.275Z,953.28
2018-12-22T03:27:45.262Z,953.33
2018-12-22T03:28:45.276Z,953.34
2018-12-22T03:29:45.254Z,953.30
2018-12-22T03:30:45.259Z,953.32
2018-12-22T03:31:45.244Z,953.33
2018-12-22T03:32:45.242Z,953.20
2018-12-22T03:33:45.237Z,953.17
2018-12-22T03:34:45.233Z,953.28
2018-12-22T03:35:45.235Z,953.22
2018-12-22T03:36:45.223Z,953.32
2018-12-22T03:37:45.221Z,953.30
2018-12-22T03:38:45.215Z,953.33
2018-12-22T03:39:45.234Z,953.20
2018-12-22T03:40:45.207Z,953.22
2018-12-22T03:41:45.205Z,953.19
2018-12-22T03:42:45.198Z,953.21
2018-12-22T03:43:45.192Z,953.24
2018-12-22T03:44:45.189Z,953.29
2018-12-22T03:45:45.186Z,953.26
2018-12-22T03:46:45.180Z,953.30
2018-12-22T03:47:45.178Z,953.28
2018-12-22T03:48:45.173Z,953.34
2018-12-22T03:49:45.172Z,953.17
2018-12-22T03:50:45.180Z,953.35
2018-12-22T03:51:45.172Z,953.22
2018-12-22T03:52:45.156Z,953.31
2018-12-22T03:53:45.151Z,953.35
2018-12-22T03:54:45.147Z,953.27
2018-12-22T03:55:45.146Z,953.23
2018-12-22T03:56:45.151Z,953.30
2018-12-22T03:57:45.134Z,953.27
2018-12-22T03:58:45.130Z,953.31
2018-12-22T03:59:45.128Z,953.32
2018-12-22T04:00:45.121Z,953.34
2018-12-22T04:01:45.141Z,953.36
2018-12-22T04:02:45.114Z,953.37
2018-12-22T04:03:45.107Z,953.38
2018-12-22T04:04:45.112Z,953.35
2018-12-22T04:05:45.100Z,953.37
2018-12-22T04:06:45.101Z,953.42
2018-12-22T04:07:45.111Z,953.35
2018-12-22T04:08:45.091Z,953.48
2018-12-22T04:09:45.083Z,953.36
2018-12-22T04:10:45.078Z,953.43
2018-12-22T04:11:45.074Z,953.52
2018-12-22T04:12:45.069Z,953.44
2018-12-22T04:13:45.071Z,953.55
2018-12-22T04:14:45.071Z,953.53
2018-12-22T04:15:45.088Z,953.45
2018-12-22T04:16:45.068Z,953.51
2018-12-22T04:17:45.050Z,953.51
2018-12-22T04:18:45.086Z,953.56
2018-12-22T04:19:45.062Z,953.56
2018-12-22T04:20:45.056Z,953.52
2018-12-22T04:21:45.035Z,953.50
2018-12-22T04:22:45.028Z,953.47
2018-12-22T04:23:45.047Z,953.40
2018-12-22T04:24:45.027Z,953.41
2018-12-22T04:25:45.015Z,953.47
2018-12-22T04:26:45.018Z,953.41
2018-12-22T04:27:45.017Z,953.32
2018-12-22T04:28:45.008Z,953.32
2018-12-22T04:29:45.002Z,953.31
2018-12-22T04:30:45.004Z,953.31
2018-12-22T04:31:44.998Z,953.22
2018-12-22T04:32:44.987Z,953.25
2018-12-22T04:33:44.984Z,953.21
2018-12-22T04:34:44.985Z,953.22
2018-12-22T04:35:44.981Z,953.23
2018-12-22T04:36:45.000Z,953.04
2018-12-22T04:37:44.983Z,953.14
2018-12-22T04:38:44.963Z,953.16
2018-12-22T04:39:44.974Z,953.10
2018-12-22T04:40:44.957Z,953.06
2018-12-22T04:41:44.955Z,953.08
2018-12-22T04:42:44.947Z,953.10
2018-12-22T04:43:45.059Z,953.04
2018-12-22T04:44:44.937Z,953.10
2018-12-22T04:45:44.933Z,953.06
2018-12-22T04:46:44.963Z,953.15
2018-12-22T04:47:44.930Z,953.14
2018-12-22T04:48:44.923Z,953.12
2018-12-22T04:49:44.915Z,953.09
2018-12-22T04:50:44.919Z,953.22
2018-12-22T04:51:44.932Z,953.16
2018-12-22T04:52:44.920Z,953.20
2018-12-22T04:53:44.915Z,953.19
2018-12-22T04:54:44.895Z,953.14
2018-12-22T04:55:44.891Z,953.22
2018-12-22T04:56:44.890Z,953.14
2018-12-22T04:57:44.882Z,953.17
2018-12-22T04:58:44.878Z,953.25
2018-12-22T04:59:44.881Z,953.14
2018-12-22T05:00:44.872Z,953.14
2018-12-22T05:01:44.877Z,953.13
2018-12-22T05:02:44.860Z,953.25
2018-12-22T05:03:44.869Z,953.18
2018-12-22T05:04:44.855Z,953.15
2018-12-22T05:05:44.868Z,953.09
2018-12-22T05:06:44.844Z,953.23
2018-12-22T05:07:44.847Z,953.26
2018-12-22T05:08:44.837Z,953.28
2018-12-22T05:09:44.844Z,953.26
2018-12-22T05:10:44.853Z,953.26
2018-12-22T05:11:44.852Z,953.35
2018-12-22T05:12:44.838Z,953.24
2018-12-22T05:13:44.818Z,953.38
2018-12-22T05:14:44.839Z,953.29
2018-12-22T05:15:44.830Z,953.37
2018-12-22T05:16:44.804Z,953.30
2018-12-22T05:17:44.803Z,953.38
2018-12-22T05:18:44.798Z,953.48
2018-12-22T05:19:44.790Z,953.38
2018-12-22T05:20:44.790Z,953.35
2018-12-22T05:21:44.789Z,953.38
2018-12-22T05:22:44.779Z,953.33
2018-12-22T05:23:44.780Z,953.26
2018-12-22T05:24:44.770Z,953.24
2018-12-22T05:25:44.770Z,953.21
2018-12-22T05:26:44.762Z,953.34
2018-12-22T05:27:45.695Z,953.20
2018-12-22T05:28:44.755Z,953.31
2018-12-22T05:29:51.863Z,953.17
2018-12-22T05:30:44.748Z,953.36
2018-12-22T05:31:44.743Z,953.41
2018-12-22T05:32:44.739Z,953.40
2018-12-22T05:33:44.735Z,953.57
2018-12-22T05:34:44.738Z,953.47
2018-12-22T05:35:44.727Z,953.42
2018-12-22T05:36:44.721Z,953.47
2018-12-22T05:37:44.720Z,953.46
2018-12-22T05:38:44.713Z,953.52
2018-12-22T05:39:44.710Z,953.52
2018-12-22T05:40:44.720Z,953.43
2018-12-22T05:41:44.712Z,953.43
2018-12-22T05:42:44.696Z,953.42
2018-12-22T05:43:44.698Z,953.46
2018-12-22T05:44:44.694Z,953.42
2018-12-22T05:45:44.688Z,953.34
2018-12-22T05:46:44.680Z,953.42
2018-12-22T05:47:44.694Z,953.37
2018-12-22T05:48:44.674Z,953.39
2018-12-22T05:49:44.669Z,953.40
2018-12-22T05:50:44.672Z,953.34
2018-12-22T05:51:44.661Z,953.40
2018-12-22T05:52:44.661Z,953.38
2018-12-22T05:53:44.653Z,953.24
2018-12-22T05:54:44.649Z,953.29
2018-12-22T05:55:44.646Z,953.23
2018-12-22T05:56:44.645Z,953.29
2018-12-22T05:57:44.640Z,953.19
2018-12-22T05:58:44.646Z,953.19
2018-12-22T05:59:44.628Z,953.25
2018-12-22T06:00:44.624Z,953.22
2018-12-22T06:01:44.620Z,953.16
2018-12-22T06:02:44.622Z,953.12
2018-12-22T06:03:44.612Z,953.16
2018-12-22T06:04:44.613Z,953.14
2018-12-22T06:05:44.603Z,953.15
2018-12-22T06:06:44.602Z,953.18
2018-12-22T06:07:44.595Z,953.30
2018-12-22T06:08:44.594Z,953.31
2018-12-22T06:09:44.595Z,953.33
2018-12-22T06:10:44.583Z,953.32
2018-12-22T06:11:44.580Z,953.28
2018-12-22T06:12:44.578Z,953.37
2018-12-22T06:13:44.601Z,953.34
2018-12-22T06:14:44.565Z,953.25
2018-12-22T06:15:44.579Z,953.27
2018-12-22T06:16:44.559Z,953.26
2018-12-22T06:17:44.566Z,953.30
2018-12-22T06:18:44.549Z,953.22
2018-12-22T06:19:44.551Z,953.22
2018-12-22T06:20:44.543Z,953.32
2018-12-22T06:21:44.564Z,953.24
2018-12-22T06:22:44.537Z,953.33
2018-12-22T06:23:44.528Z,953.26
2018-12-22T06:24:44.526Z,953.28
2018-12-22T06:25:44.525Z,953.14
2018-12-22T06:26:44.516Z,953.31
2018-12-22T06:27:44.532Z,953.27
2018-12-22T06:28:44.512Z,953.36
2018-12-22T06:29:44.516Z,953.29
2018-12-22T06:30:44.502Z,953.24
2018-12-22T06:31:44.496Z,953.22
2018-12-22T06:32:44.491Z,953.28
2018-12-22T06:33:44.494Z,953.31
2018-12-22T06:34:44.480Z,953.32
2018-12-22T06:35:44.482Z,953.30
2018-12-22T06:36:45.202Z,953.30
2018-12-22T06:37:44.473Z,953.23
2018-12-22T06:38:44.474Z,953.21
2018-12-22T06:39:44.463Z,953.23
2018-12-22T06:40:44.460Z,953.19
2018-12-22T06:41:44.454Z,953.19
2018-12-22T06:42:44.452Z,953.26
2018-12-22T06:43:44.461Z,953.09
2018-12-22T06:44:44.441Z,953.27
2018-12-22T06:45:44.447Z,953.17
2018-12-22T06:46:44.430Z,953.18
2018-12-22T06:47:44.427Z,953.22
2018-12-22T06:48:44.422Z,953.04
2018-12-22T06:49:44.418Z,953.12
2018-12-22T06:50:44.414Z,953.07
2018-12-22T06:51:44.410Z,953.09
2018-12-22T06:52:44.405Z,953.14
2018-12-22T06:53:44.410Z,953.00
2018-12-22T06:54:44.406Z,953.01
2018-12-22T06:55:44.390Z,953.05
2018-12-22T06:56:44.388Z,952.97
2018-12-22T06:57:44.383Z,953.10
2018-12-22T06:58:44.379Z,953.10
2018-12-22T06:59:44.374Z,953.01
2018-12-22T07:00:44.378Z,953.11
2018-12-22T07:01:44.365Z,953.26
2018-12-22T07:02:44.361Z,953.23
2018-12-22T07:03:44.368Z,953.19
2018-12-22T07:04:44.353Z,953.26
2018-12-22T07:05:44.351Z,953.21
2018-12-22T07:06:44.343Z,953.10
2018-12-22T07:07:44.341Z,953.18
2018-12-22T07:08:44.364Z,953.34
2018-12-22T07:09:44.328Z,953.07
2018-12-22T07:10:44.330Z,953.33
2018-12-22T07:11:44.321Z,953.44
2018-12-22T07:12:44.338Z,953.37
2018-12-22T07:13:44.311Z,953.36
2018-12-22T07:14:44.307Z,953.43
2018-12-22T07:15:44.317Z,953.39
2018-12-22T07:16:44.302Z,953.35
2018-12-22T07:17:51.726Z,953.27
2018-12-22T07:19:37.206Z,953.40
2018-12-22T07:20:37.185Z,953.23
2018-12-22T07:22:30.657Z,953.34
2018-12-22T07:23:30.598Z,953.33
2018-12-22T07:25:24.084Z,953.44
2018-12-22T07:26:24.033Z,953.38
2018-12-22T07:28:16.912Z,953.45
2018-12-22T07:29:17.009Z,953.62
2018-12-22T07:31:09.898Z,953.57
2018-12-22T07:32:09.744Z,953.55
2018-12-22T07:34:02.632Z,953.49
2018-12-22T07:35:02.591Z,953.55
2018-12-22T07:36:55.503Z,953.54
2018-12-22T07:37:55.453Z,953.54
2018-12-22T07:39:48.430Z,953.52
2018-12-22T07:40:48.328Z,953.52
2018-12-22T07:42:41.219Z,953.50
2018-12-22T07:43:41.194Z,953.51
2018-12-22T07:45:34.082Z,953.47
2018-12-22T07:46:34.074Z,953.59
2018-12-22T07:48:27.673Z,953.51
2018-12-22T07:49:27.506Z,953.50
2018-12-22T07:51:21.488Z,953.47
2018-12-22T07:52:21.491Z,953.39
2018-12-22T07:54:15.351Z,953.55
2018-12-22T07:55:15.421Z,953.67
2018-12-22T07:57:08.223Z,953.48
2018-12-22T07:58:08.202Z,953.58
2018-12-22T08:00:01.169Z,953.41
2018-12-22T08:01:01.051Z,953.39
2018-12-22T08:02:53.995Z,953.40
2018-12-22T08:03:53.937Z,953.53
2018-12-22T08:05:46.856Z,953.52
2018-12-22T08:06:46.808Z,953.53
2018-12-22T08:07:46.804Z,953.56
2018-12-22T08:08:46.871Z,953.60
2018-12-22T08:09:46.797Z,953.60
2018-12-22T08:10:46.789Z,953.63
2018-12-22T08:11:46.790Z,953.67
2018-12-22T08:12:46.778Z,953.48
2018-12-22T08:13:46.775Z,953.72
2018-12-22T08:14:46.770Z,953.54
2018-12-22T08:15:46.766Z,953.70
2018-12-22T08:16:46.760Z,953.66
2018-12-22T08:17:46.760Z,953.77
2018-12-22T08:18:46.756Z,953.87
2018-12-22T08:19:46.747Z,953.61
2018-12-22T08:20:46.747Z,953.80
2018-12-22T08:21:46.762Z,953.86
2018-12-22T08:22:46.752Z,953.70
2018-12-22T08:23:46.750Z,953.76
2018-12-22T08:24:46.888Z,953.91
2018-12-22T08:25:46.711Z,953.71
2018-12-22T08:26:46.709Z,953.81
2018-12-22T08:27:46.713Z,953.89
2018-12-22T08:28:46.696Z,953.87
2018-12-22T08:29:46.695Z,953.91
2018-12-22T08:30:46.690Z,953.93
2018-12-22T08:31:46.690Z,953.76
2018-12-22T08:32:46.689Z,953.91
2018-12-22T08:33:46.680Z,953.91
2018-12-22T08:34:46.671Z,953.98
2018-12-22T08:35:46.673Z,953.89
2018-12-22T08:36:46.663Z,953.94
2018-12-22T08:37:46.660Z,953.92
2018-12-22T08:38:46.675Z,954.00
2018-12-22T08:39:46.655Z,953.94
2018-12-22T08:40:46.652Z,954.16
2018-12-22T08:41:46.644Z,954.24
2018-12-22T08:42:46.643Z,953.99
2018-12-22T08:43:46.646Z,954.13
2018-12-22T08:44:46.635Z,954.07
2018-12-22T08:45:46.627Z,953.91
2018-12-22T08:46:46.629Z,954.05
2018-12-22T08:47:46.631Z,954.07
2018-12-22T08:48:46.619Z,954.17
2018-12-22T08:49:46.618Z,954.14
2018-12-22T08:50:46.609Z,954.18
2018-12-22T08:51:46.611Z,954.10
2018-12-22T08:52:46.602Z,954.26
2018-12-22T08:53:46.598Z,954.23
2018-12-22T08:54:46.600Z,954.39
2018-12-22T08:55:46.593Z,954.27
2018-12-22T08:56:46.606Z,954.44
2018-12-22T08:57:53.935Z,954.36
2018-12-22T08:59:39.512Z,954.52
2018-12-22T09:00:39.465Z,954.58
2018-12-22T09:02:32.426Z,954.82
2018-12-22T09:03:32.327Z,954.75
2018-12-22T09:05:25.761Z,954.77
2018-12-22T09:06:25.705Z,954.97
2018-12-22T09:08:18.590Z,954.75
2018-12-22T09:09:18.580Z,954.70
2018-12-22T09:11:12.121Z,954.96
2018-12-22T09:12:11.955Z,955.12
2018-12-22T09:14:05.088Z,955.02
2018-12-22T09:15:04.812Z,954.98
2018-12-22T09:16:58.328Z,955.10
2018-12-22T09:17:58.159Z,955.10
2018-12-22T09:19:51.052Z,955.03
2018-12-22T09:20:51.019Z,954.94
2018-12-22T09:22:43.919Z,955.01
2018-12-22T09:23:43.879Z,954.95
2018-12-22T09:25:36.788Z,955.14
2018-12-22T09:26:36.718Z,955.21
2018-12-22T09:28:29.671Z,955.27
2018-12-22T09:29:29.592Z,955.14
2018-12-22T09:31:22.472Z,955.19
2018-12-22T09:32:22.434Z,955.13
2018-12-22T09:33:22.444Z,955.23
2018-12-22T09:34:22.439Z,955.24
2018-12-22T09:35:22.436Z,955.29
2018-12-22T09:36:22.423Z,955.27
2018-12-22T09:37:22.418Z,955.24
2018-12-22T09:38:22.412Z,955.31
2018-12-22T09:39:22.412Z,955.30
2018-12-22T09:40:22.401Z,955.47
2018-12-22T09:41:22.399Z,955.38
2018-12-22T09:42:22.392Z,955.42
2018-12-22T09:43:22.589Z,955.40
2018-12-22T09:44:22.383Z,955.52
2018-12-22T09:45:22.375Z,955.26
2018-12-22T09:46:22.372Z,956.12
2018-12-22T09:47:22.365Z,955.34
2018-12-22T09:48:22.363Z,955.94
2018-12-22T09:49:22.361Z,955.58
2018-12-22T09:50:22.354Z,955.58
2018-12-22T09:51:22.357Z,955.67
2018-12-22T09:52:22.355Z,955.58
2018-12-22T09:53:22.353Z,955.44
2018-12-22T09:54:22.357Z,955.53
2018-12-22T09:55:22.371Z,955.47
2018-12-22T09:56:22.343Z,955.47
2018-12-22T09:57:22.345Z,955.51
2018-12-22T09:58:22.337Z,955.56
2018-12-22T09:59:22.343Z,955.46
2018-12-22T10:00:22.335Z,955.48
2018-12-22T10:01:22.333Z,955.41
2018-12-22T10:02:22.334Z,955.41
2018-12-22T10:03:22.331Z,955.63
2018-12-22T10:04:22.326Z,955.46
2018-12-22T10:05:22.329Z,955.59
2018-12-22T10:06:22.321Z,955.55
2018-12-22T10:07:22.317Z,955.73
2018-12-22T10:08:22.314Z,955.45
2018-12-22T10:09:22.336Z,955.59
2018-12-22T10:10:22.320Z,955.37
2018-12-22T10:11:22.317Z,955.55
2018-12-22T10:12:22.302Z,955.32
2018-12-22T10:13:22.300Z,955.54
2018-12-22T10:14:22.300Z,955.61
2018-12-22T10:15:22.318Z,955.53
2018-12-22T10:16:22.292Z,955.64
2018-12-22T10:17:22.290Z,955.57
2018-12-22T10:18:22.287Z,955.77
2018-12-22T10:19:22.288Z,955.69
2018-12-22T10:20:22.279Z,955.74
2018-12-22T10:21:22.273Z,955.73
2018-12-22T10:22:22.270Z,955.64
2018-12-22T10:23:22.268Z,955.65
2018-12-22T10:24:22.264Z,955.72
2018-12-22T10:25:22.270Z,955.68
2018-12-22T10:26:22.258Z,955.82
2018-12-22T10:27:22.548Z,955.76
2018-12-22T10:28:22.252Z,955.87
2018-12-22T10:29:22.270Z,955.81
2018-12-22T10:30:22.270Z,955.87
2018-12-22T10:31:22.243Z,955.68
2018-12-22T10:32:29.658Z,955.86
2018-12-22T10:34:15.334Z,956.00
2018-12-22T10:35:15.169Z,955.83
2018-12-22T10:37:09.357Z,956.04
2018-12-22T10:38:09.084Z,956.02
2018-12-22T10:40:02.871Z,955.98
2018-12-22T10:41:02.435Z,956.03
2018-12-22T10:43:03.635Z,956.09
2018-12-22T10:44:00.166Z,955.98
2018-12-22T10:45:55.947Z,956.13
2018-12-22T10:46:56.381Z,956.15
2018-12-22T10:47:50.733Z,956.00
2018-12-22T10:48:49.766Z,956.26
2018-12-22T10:49:49.952Z,956.01
2018-12-22T10:50:57.194Z,956.19
2018-12-22T10:52:43.666Z,956.14
2018-12-22T10:53:43.109Z,956.14
2018-12-22T10:55:36.803Z,956.26
2018-12-22T10:56:36.597Z,956.29
2018-12-22T10:57:36.544Z,956.30
2018-12-22T10:58:36.687Z,956.21
2018-12-22T10:59:36.420Z,956.30
2018-12-22T11:00:36.444Z,956.23
2018-12-22T11:01:36.461Z,956.25
2018-12-22T11:02:36.440Z,956.31
2018-12-22T11:03:36.435Z,956.31
2018-12-22T11:04:44.439Z,956.43
2018-12-22T11:06:30.466Z,956.44
2018-12-22T11:07:37.420Z,956.36
2018-12-22T11:09:23.720Z,956.47
2018-12-22T11:10:23.571Z,956.39
2018-12-22T11:12:16.754Z,956.48
2018-12-22T11:13:16.701Z,956.53
2018-12-22T11:15:10.229Z,956.43
2018-12-22T11:16:10.179Z,956.41
2018-12-22T11:17:10.089Z,956.52
2018-12-22T11:18:10.239Z,956.34
2018-12-22T11:19:10.016Z,956.47
2018-12-22T11:20:10.020Z,956.47
2018-12-22T11:21:10.006Z,956.47
2018-12-22T11:22:11.567Z,956.50
2018-12-22T11:23:10.019Z,956.66
2018-12-22T11:24:09.995Z,956.56
2018-12-22T11:25:10.000Z,956.49
2018-12-22T11:26:09.991Z,956.68
2018-12-22T11:27:09.997Z,956.46
2018-12-22T11:28:09.985Z,956.61
2018-12-22T11:29:09.979Z,956.54
2018-12-22T11:30:09.975Z,956.52
2018-12-22T11:31:09.978Z,956.56
2018-12-22T11:32:09.968Z,956.53
2018-12-22T11:33:09.965Z,956.40
2018-12-22T11:34:09.962Z,956.56
2018-12-22T11:35:09.962Z,956.60
2018-12-22T11:36:09.956Z,956.57
2018-12-22T11:37:09.955Z,956.55
2018-12-22T11:38:09.950Z,956.57
2018-12-22T11:39:09.954Z,956.57
2018-12-22T11:40:09.941Z,956.63
2018-12-22T11:41:09.937Z,956.52
2018-12-22T11:42:09.936Z,956.59
2018-12-22T11:43:09.931Z,956.56
2018-12-22T11:44:09.948Z,956.52
2018-12-22T11:45:09.924Z,956.60
2018-12-22T11:46:09.920Z,956.66
2018-12-22T11:47:09.926Z,956.67
2018-12-22T11:48:09.912Z,956.69
2018-12-22T11:49:09.909Z,956.74
2018-12-22T11:50:09.904Z,956.78
2018-12-22T11:51:09.898Z,956.82
2018-12-22T11:52:09.899Z,956.85
2018-12-22T11:53:09.904Z,956.92
2018-12-22T11:54:09.892Z,956.86
2018-12-22T11:55:09.884Z,957.08
2018-12-22T11:56:09.881Z,957.00
2018-12-22T11:57:09.884Z,957.06
2018-12-22T11:58:09.890Z,957.08
2018-12-22T11:59:09.875Z,957.21
2018-12-22T12:00:09.870Z,957.03
2018-12-22T12:01:09.881Z,956.97
2018-12-22T12:02:10.197Z,957.11
2018-12-22T12:03:09.858Z,957.16
2018-12-22T12:04:09.853Z,957.20
2018-12-22T12:05:09.854Z,957.32
2018-12-22T12:06:09.845Z,957.28
2018-12-22T12:07:09.844Z,957.31
2018-12-22T12:08:09.841Z,957.25
2018-12-22T12:09:09.842Z,957.30
2018-12-22T12:10:09.836Z,957.32
2018-12-22T12:11:09.829Z,957.39
2018-12-22T12:12:09.826Z,957.41
2018-12-22T12:13:09.822Z,957.41
2018-12-22T12:14:09.874Z,957.60
2018-12-22T12:15:09.824Z,957.49
2018-12-22T12:16:09.897Z,957.45
2018-12-22T12:17:09.809Z,957.54
2018-12-22T12:18:09.817Z,957.52
2018-12-22T12:19:09.802Z,957.53
2018-12-22T12:20:09.797Z,957.56
2018-12-22T12:21:09.796Z,957.61
2018-12-22T12:22:09.808Z,957.52
2018-12-22T12:23:09.785Z,957.56
2018-12-22T12:24:09.782Z,957.61
2018-12-22T12:25:09.785Z,957.59
2018-12-22T12:26:09.779Z,957.65
2018-12-22T12:27:09.775Z,957.64
2018-12-22T12:28:09.766Z,957.63
2018-12-22T12:29:09.776Z,957.70
2018-12-22T12:30:09.775Z,957.72
2018-12-22T12:31:09.756Z,957.82
2018-12-22T12:32:09.752Z,957.70
2018-12-22T12:33:09.748Z,957.85
2018-12-22T12:34:09.749Z,957.81
2018-12-22T12:35:09.746Z,957.74
2018-12-22T12:36:09.738Z,957.82
2018-12-22T12:37:09.732Z,957.84
2018-12-22T12:38:09.730Z,957.88
2018-12-22T12:39:09.738Z,957.99
2018-12-22T12:40:09.729Z,957.91
2018-12-22T12:41:09.726Z,957.94
2018-12-22T12:42:09.715Z,957.98
2018-12-22T12:43:09.711Z,958.06
2018-12-22T12:44:09.705Z,958.05
2018-12-22T12:45:09.705Z,958.09
2018-12-22T12:46:11.557Z,958.13
2018-12-22T12:47:09.701Z,958.16
2018-12-22T12:48:09.712Z,958.23
2018-12-22T12:49:09.690Z,958.19
2018-12-22T12:50:09.684Z,958.22
2018-12-22T12:51:09.679Z,958.27
2018-12-22T12:52:09.682Z,958.27
2018-12-22T12:53:09.988Z,958.21
2018-12-22T12:54:09.671Z,958.38
2018-12-22T12:55:10.842Z,958.43
2018-12-22T12:56:09.665Z,958.38
2018-12-22T12:57:09.662Z,958.39
2018-12-22T12:58:09.677Z,958.36
2018-12-22T12:59:09.649Z,958.42
2018-12-22T13:00:09.645Z,958.46
2018-12-22T13:01:09.647Z,958.46
2018-12-22T13:02:09.638Z,958.48
2018-12-22T13:03:09.632Z,958.49
2018-12-22T13:04:09.630Z,958.53